Time;durP1;ratioP1;P1;durP2;ratioP2;P2;SDS_P1;SDS_P2;PMS_P1;PMS_P2;Temp;Humidity;BMP_temperature;BMP_pressure;BME280_temperature;BME280_humidity;BME280_pressure;Samples;Min_cycle;Max_cycle;Signal;HPM_P1;HPM_P2
2022/05/23 00:01:04;;;;;;;;;;;;;;;15.96;100.00;-8028.84;5055206;28;20020;-77
2022/05/23 00:03:31;;;;;;;;;;;;;;;15.98;100.00;-8690.16;5052939;28;19923;-77
2022/05/23 00:05:56;;;;;;;;;;;;;;;15.96;100.00;-9020.72;5053865;28;19920;-77
2022/05/23 00:08:22;;;;;;;;;;;;;;;15.90;100.00;-9681.63;5054506;28;19916;-77
2022/05/23 00:10:47;;;;;;;;;;;;;;;15.86;100.00;-9681.50;5070952;28;19920;-76
2022/05/23 00:13:12;;;;;;;;;;;;;;;15.76;100.00;-10011.59;5053639;28;19917;-77
2022/05/23 00:15:39;;;;;;;;;;;;;;;15.76;100.00;-11002.66;5053888;28;20288;-76
2022/05/23 00:18:04;;;;;;;;;;;;;;;15.85;100.00;-11333.44;5071439;28;19916;-77
2022/05/23 00:20:29;;;;;;;;;;;;;;;15.84;100.00;-11663.72;5053554;28;19928;-77
2022/05/23 00:22:55;;;;;;;;;;;;;;;15.84;100.00;-12324.22;5053867;28;19920;-77
2022/05/23 00:25:20;;;;;;;;;;;;;;;15.79;100.00;-12984.28;5054646;28;19917;-76
2022/05/23 00:27:46;;;;;;;;;;;;;;;15.76;100.00;-13314.16;5054758;28;19923;-77
2022/05/23 00:30:13;;;;;;;;;;;;;;;15.67;100.00;-14303.38;5072658;28;19920;-76
2022/05/23 00:35:22;;;;;;;;;;;;;;;15.71;100.00;-15953.44;5073356;28;20012;-76
2022/05/23 00:37:49;;;;;;;;;;;;;;;15.69;100.00;-16612.81;5054403;28;19959;-76
2022/05/23 00:40:22;;;;;;;;;;;;;;;15.68;100.00;-16282.88;5052580;28;20080;-76
2022/05/23 00:45:33;;;;;;;;;;;;;;;15.66;100.00;-17601.56;5072721;28;19947;-78
2022/05/23 00:47:58;;;;;;;;;;;;;;;15.66;100.00;-19249.66;5055141;28;19921;-78
2022/05/23 00:50:23;;;;;;;;;;;;;;;15.67;100.00;-19579.38;5054973;28;19966;-78
2022/05/23 00:52:54;;;;;;;;;;;;;;;15.57;100.00;-19577.53;5037788;28;20349;-78
2022/05/23 00:55:23;;;;;;;;;;;;;;;15.51;100.00;-19905.69;5054059;28;19916;-79
2022/05/23 00:57:49;;;;;;;;;;;;;;;15.57;100.00;-20565.81;5053829;28;19924;-79
2022/05/23 01:00:15;;;;;;;;;;;;;;;15.55;100.00;-20565.28;5054998;28;20007;-78
2022/05/23 01:02:43;;;;;;;;;;;;;;;15.54;100.00;-20894.44;5072770;28;19958;-78
2022/05/23 01:05:09;;;;;;;;;;;;;;;15.56;100.00;-21882.91;5055313;28;20054;-79
2022/05/23 01:07:36;;;;;;;;;;;;;;;15.50;100.00;-22869.09;5038525;28;19982;-78
2022/05/23 01:10:01;;;;;;;;;;;;;;;15.47;100.00;-24184.66;5055083;28;19917;-78
2022/05/23 01:12:29;;;;;;;;;;;;;;;15.36;100.00;-25499.41;5055384;28;19917;-78
2022/05/23 01:14:59;;;;;;;;;;;;;;;15.33;100.00;-25498.38;5054896;28;19920;-78
2022/05/23 01:17:26;;;;;;;;;;;;;;;15.21;100.00;-25495.03;5058861;28;19916;-77
2022/05/23 01:19:51;;;;;;;;;;;;;;;15.22;100.00;-25495.47;5058415;28;20009;-77
2022/05/23 01:22:37;;;;;;;;;;;;;;;15.17;100.00;-25493.88;5058317;28;19951;-77
2022/05/23 01:25:03;;;;;;;;;;;;;;;15.20;100.00;-25494.75;5075999;28;20026;-77
2022/05/23 01:27:29;;;;;;;;;;;;;;;15.19;100.00;-25494.44;5076319;28;19923;-77
2022/05/23 01:29:55;;;;;;;;;;;;;;;15.16;100.00;-25493.72;5058538;28;20007;-77
2022/05/23 01:32:20;;;;;;;;;;;;;;;15.09;100.00;-25491.69;5076148;28;20438;-77
2022/05/23 01:34:45;;;;;;;;;;;;;;;15.14;100.00;-25493.00;5058254;28;19916;-77
2022/05/23 01:37:11;;;;;;;;;;;;;;;15.15;100.00;-25493.28;5058434;28;19917;-75
2022/05/23 01:39:36;;;;;;;;;;;;;;;15.13;100.00;-25492.69;5041774;28;19921;-78
2022/05/23 01:42:01;;;;;;;;;;;;;;;15.07;100.00;-25491.25;5058134;28;19966;-78
2022/05/23 01:44:28;;;;;;;;;;;;;;;15.04;100.00;-25490.38;5039884;28;20568;-77
2022/05/23 01:46:53;;;;;;;;;;;;;;;15.04;100.00;-25490.38;5057724;28;19920;-78
2022/05/23 01:49:19;;;;;;;;;;;;;;;14.99;100.00;-25488.91;5058210;28;19978;-77
2022/05/23 01:51:45;;;;;;;;;;;;;;;14.93;100.00;-25487.19;5057764;28;19922;-79
2022/05/23 01:54:12;;;;;;;;;;;;;;;14.90;100.00;-25486.31;5058384;28;20410;-78
2022/05/23 01:56:37;;;;;;;;;;;;;;;14.87;100.00;-25485.44;5041288;28;19921;-78
2022/05/23 02:01:46;;;;;;;;;;;;;;;14.85;100.00;-25484.84;5075678;28;19962;-78
2022/05/23 02:04:15;;;;;;;;;;;;;;;14.84;100.00;-25484.56;5057737;28;20393;-77
2022/05/23 02:06:40;;;;;;;;;;;;;;;14.84;100.00;-25484.56;5057856;28;19912;-78
2022/05/23 02:09:05;;;;;;;;;;;;;;;14.75;100.00;-25482.06;5057731;28;19924;-78
2022/05/23 02:11:31;;;;;;;;;;;;;;;14.77;100.00;-25482.50;5057109;28;19912;-77
2022/05/23 02:13:57;;;;;;;;;;;;;;;14.76;100.00;-25482.22;5057739;28;19917;-78
2022/05/23 02:16:23;;;;;;;;;;;;;;;14.78;100.00;-25482.81;5057950;28;20003;-78
2022/05/23 02:18:48;;;;;;;;;;;;;;;14.80;100.00;-25483.38;5057528;28;19956;-78
2022/05/23 02:21:13;;;;;;;;;;;;;;;14.81;100.00;-25483.81;5057877;28;19916;-78
2022/05/23 02:23:43;;;;;;;;;;;;;;;14.69;100.00;-25480.31;5040795;28;20371;-78
2022/05/23 02:26:09;;;;;;;;;;;;;;;14.69;100.00;-25480.47;5074699;28;19942;-78
2022/05/23 02:28:34;;;;;;;;;;;;;;;14.76;100.00;-25482.22;5057178;28;19925;-79
2022/05/23 02:30:59;;;;;;;;;;;;;;;14.77;100.00;-25482.66;5057587;28;19996;-78
2022/05/23 02:33:26;;;;;;;;;;;;;;;14.84;100.00;-25484.56;5057235;28;19927;-77
2022/05/23 02:35:51;;;;;;;;;;;;;;;14.85;100.00;-25484.84;5057126;28;19916;-77
2022/05/23 02:38:16;;;;;;;;;;;;;;;14.68;100.00;-25480.19;5056937;28;20433;-77
2022/05/23 02:40:42;;;;;;;;;;;;;;;14.48;100.00;-25474.50;5056453;28;19921;-78
2022/05/23 02:43:08;;;;;;;;;;;;;;;14.52;100.00;-25475.66;5040106;28;20364;-78
2022/05/23 02:45:33;;;;;;;;;;;;;;;14.45;100.00;-25473.63;5054321;28;19927;-78
2022/05/23 02:47:58;;;;;;;;;;;;;;;14.42;100.00;-25472.59;5057061;28;20364;-78
2022/05/23 02:50:24;;;;;;;;;;;;;;;14.43;100.00;-25473.03;5075004;28;20121;-78
2022/05/23 02:52:51;;;;;;;;;;;;;;;14.44;100.00;-25473.19;5056670;28;19927;-79
2022/05/23 02:55:17;;;;;;;;;;;;;;;14.43;100.00;-25472.91;5074605;28;19922;-78
2022/05/23 02:57:42;;;;;;;;;;;;;;;14.42;100.00;-25472.75;5056961;28;20010;-78
2022/05/23 03:00:08;;;;;;;;;;;;;;;14.47;100.00;-25474.06;5074378;28;20007;-76
2022/05/23 03:05:32;;;;;;;;;;;;;;;14.44;100.00;-25473.19;5074342;28;19939;-78
2022/05/23 03:07:58;;;;;;;;;;;;;;;14.41;100.00;-25472.47;5056772;28;19917;-77
2022/05/23 03:10:23;;;;;;;;;;;;;;;14.29;100.00;-25469.09;5056852;28;20376;-77
2022/05/23 03:12:49;;;;;;;;;;;;;;;14.27;100.00;-25468.38;5074113;28;19920;-78
2022/05/23 03:15:14;;;;;;;;;;;;;;;14.23;100.00;-25467.22;5039893;28;19927;-78
2022/05/23 03:17:39;;;;;;;;;;;;;;;14.17;100.00;-25465.75;5056505;28;19917;-77
2022/05/23 03:20:05;;;;;;;;;;;;;;;14.14;100.00;-25464.72;5073823;28;19917;-76
2022/05/23 03:27:59;;;;;;;;;;;;;;;14.15;100.00;-25465.16;5058940;28;20110;-76
2022/05/23 03:30:25;;;;;;;;;;;;;;;14.17;100.00;-25465.59;5052696;28;19921;-76
2022/05/23 03:32:54;;;;;;;;;;;;;;;14.20;100.00;-25466.47;5052274;28;19943;-77
2022/05/23 03:35:21;;;;;;;;;;;;;;;14.21;100.00;-25466.63;5052284;28;22014;-76
2022/05/23 03:37:46;;;;;;;;;;;;;;;14.24;100.00;-25467.66;5051537;28;19917;-76
2022/05/23 03:40:12;;;;;;;;;;;;;;;14.23;100.00;-25467.34;5052541;28;19917;-76
2022/05/23 03:42:37;;;;;;;;;;;;;;;14.19;100.00;-25466.19;5052339;28;19917;-77
2022/05/23 03:45:03;;;;;;;;;;;;;;;14.26;100.00;-25468.09;5052448;28;19970;-76
2022/05/23 03:47:28;;;;;;;;;;;;;;;14.23;100.00;-25467.34;5052653;28;20447;-78
2022/05/23 03:49:54;;;;;;;;;;;;;;;14.25;100.00;-25467.94;5035385;28;20019;-77
2022/05/23 03:52:20;;;;;;;;;;;;;;;14.18;100.00;-25465.91;5052684;28;20380;-78
2022/05/23 03:54:46;;;;;;;;;;;;;;;14.22;100.00;-25467.06;5051812;28;19916;-77
2022/05/23 03:57:12;;;;;;;;;;;;;;;14.25;100.00;-25467.94;5051935;28;19935;-76
2022/05/23 03:59:37;;;;;;;;;;;;;;;14.23;100.00;-25467.34;5035340;28;19933;-77
2022/05/23 04:02:03;;;;;;;;;;;;;;;14.17;100.00;-25465.59;5035508;28;20395;-77
2022/05/23 04:04:32;;;;;;;;;;;;;;;14.16;100.00;-25465.31;5051973;28;19917;-76
2022/05/23 04:06:59;;;;;;;;;;;;;;;14.17;100.00;-25465.75;5052141;28;20376;-77
2022/05/23 04:09:24;;;;;;;;;;;;;;;14.17;100.00;-25465.75;5052975;28;19939;-77
2022/05/23 04:11:50;;;;;;;;;;;;;;;14.13;100.00;-25464.44;5035313;28;19928;-77
2022/05/23 04:14:17;;;;;;;;;;;;;;;14.07;100.00;-25462.84;5035143;28;20384;-80
2022/05/23 04:16:46;;;;;;;;;;;;;;;14.20;100.00;-25466.47;5051888;28;19917;-77
2022/05/23 04:19:12;;;;;;;;;;;;;;;14.34;100.00;-25470.56;5051698;28;20047;-75
2022/05/23 04:21:41;;;;;;;;;;;;;;;14.31;100.00;-25469.69;5051836;28;20015;-76
2022/05/23 04:24:07;;;;;;;;;;;;;;;14.39;100.00;-25471.72;5051931;28;20242;-77
2022/05/23 04:26:32;;;;;;;;;;;;;;;14.50;100.00;-25474.94;5051337;28;19927;-75
2022/05/23 04:28:57;;;;;;;;;;;;;;;14.54;100.00;-25476.25;5050512;28;19921;-75
2022/05/23 04:31:23;;;;;;;;;;;;;;;14.68;100.00;-25480.03;5051496;28;19925;-79
2022/05/23 04:36:32;;;;;;;;;;;;;;;14.65;100.00;-25479.31;5052560;28;20392;-75
2022/05/23 04:38:57;;;;;;;;;;;;;;;14.76;100.00;-25482.22;5051084;28;19913;-75
2022/05/23 04:41:23;;;;;;;;;;;;;;;14.75;100.00;-25482.06;5051025;28;19920;-76
2022/05/23 04:43:49;;;;;;;;;;;;;;;14.83;100.00;-25484.25;5050453;28;20218;-77
2022/05/23 04:46:15;;;;;;;;;;;;;;;15.09;100.00;-25491.69;5050780;28;19924;-77
2022/05/23 04:51:24;;;;;;;;;;;;;;;15.11;100.00;-25492.13;5056492;28;19974;-77
2022/05/23 04:53:59;;;;;;;;;;;;;;;15.21;100.00;-25495.03;5037932;28;19925;-76
2022/05/23 04:56:26;;;;;;;;;;;;;;;15.54;100.00;-25504.50;5055111;28;19917;-74
2022/05/23 04:58:51;;;;;;;;;;;;;;;15.59;100.00;-25505.94;5054481;28;19917;-75
2022/05/23 05:01:16;;;;;;;;;;;;;;;15.52;100.00;-25503.75;5054808;28;19917;-78
2022/05/23 05:03:42;;;;;;;;;;;;;;;15.95;100.00;-25516.13;5056151;28;19916;-79
2022/05/23 05:06:07;;;;;;;;;;;;;;;15.80;100.00;-25511.75;5054848;28;19923;-77
2022/05/23 05:08:32;;;;;;;;;;;;;;;15.41;100.00;-25500.69;5056086;28;19917;-77
2022/05/23 05:10:58;;;;;;;;;;;;;;;15.47;100.00;-25502.44;5055114;28;19971;-76
2022/05/23 05:13:23;;;;;;;;;;;;;;;15.27;100.00;-25496.78;5054359;28;19921;-75
2022/05/23 05:15:49;;;;;;;;;;;;;;;15.27;100.00;-25496.78;5054531;28;20317;-76
2022/05/23 05:18:14;;;;;;;;;;;;;;;15.39;100.00;-25500.25;5054831;28;19917;-78
2022/05/23 05:20:39;;;;;;;;;;;;;;;15.48;100.00;-25502.59;5054303;28;19916;-76
2022/05/23 05:23:05;;;;;;;;;;;;;;;15.28;100.00;-25496.94;5037736;28;19921;-77
2022/05/23 05:25:31;;;;;;;;;;;;;;;15.11;100.00;-25492.13;5053306;28;19917;-77
2022/05/23 05:27:56;;;;;;;;;;;;;;;15.37;100.00;-25499.53;5053087;28;19960;-75
2022/05/23 05:30:22;;;;;;;;;;;;;;;15.65;100.00;-25507.41;5054462;28;20025;-76
2022/05/23 05:32:53;;;;;;;;;;;;;;;15.58;100.00;-25505.50;5053878;28;20399;-76
2022/05/23 05:35:23;;;;;;;;;;;;;;;15.63;100.00;-25506.97;5055124;28;19924;-78
2022/05/23 05:37:57;;;;;;;;;;;;;;;15.48;100.00;-25502.75;5054069;28;19921;-78
2022/05/23 05:40:24;;;;;;;;;;;;;;;15.67;100.00;-25507.97;5055218;28;19917;-74
2022/05/23 05:42:58;;;;;;;;;;;;;;;15.55;100.00;-25504.63;5053123;28;19925;-78
2022/05/23 05:45:29;;;;;;;;;;;;;;;15.39;100.00;-25500.25;5054155;28;19928;-77
2022/05/23 05:47:54;;;;;;;;;;;;;;;15.47;100.00;-25502.31;5054924;28;20395;-75
2022/05/23 05:50:23;;;;;;;;;;;;;;;15.65;100.00;-25507.41;5053776;28;19917;-75
2022/05/23 05:52:49;;;;;;;;;;;;;;;15.66;100.00;-25507.84;5053321;28;19923;-74
2022/05/23 05:55:15;;;;;;;;;;;;;;;15.74;100.00;-25510.00;5053910;28;20012;-75
2022/05/23 05:57:41;;;;;;;;;;;;;;;15.89;100.00;-25514.22;5050849;28;19917;-77
2022/05/23 06:00:07;;;;;;;;;;;;;;;15.71;100.00;-25509.28;5054016;28;19970;-75
2022/05/23 06:02:33;;;;;;;;;;;;;;;15.61;100.00;-25506.53;5051512;28;20373;-75
2022/05/23 06:04:58;;;;;;;;;;;;;;;15.86;100.00;-25513.34;5052712;28;19917;-75
2022/05/23 06:12:53;;;;;;;;;;;;;;;15.72;100.00;-25509.56;5054005;28;19919;-75
2022/05/23 06:15:18;;;;;;;;;;;;;;;15.91;100.00;-25514.81;5052728;28;20287;-75
2022/05/23 06:17:44;;;;;;;;;;;;;;;16.17;100.00;-25522.06;5051172;28;19913;-75
2022/05/23 06:20:10;;;;;;;;;;;;;;;16.10;100.00;-25520.19;5051901;28;20296;-74
2022/05/23 06:22:35;;;;;;;;;;;;;;;16.30;100.00;-25525.84;5035160;28;19937;-76
2022/05/23 06:25:02;;;;;;;;;;;;;;;16.28;100.00;-25525.28;5050635;28;20074;-75
2022/05/23 06:27:27;;;;;;;;;;;;;;;16.42;100.00;-25529.34;5035245;28;19968;-75
2022/05/23 06:29:53;;;;;;;;;;;;;;;16.50;100.00;-25531.66;5051558;28;20573;-74
2022/05/23 06:32:18;;;;;;;;;;;;;;;16.59;100.00;-25534.13;5034557;28;19925;-75
2022/05/23 06:34:43;;;;;;;;;;;;;;;16.69;100.00;-25536.88;5051336;28;19920;-75
2022/05/23 06:37:08;;;;;;;;;;;;;;;16.73;100.00;-25537.91;5051687;28;19944;-73
2022/05/23 06:39:34;;;;;;;;;;;;;;;16.51;100.00;-25531.94;5050828;28;20285;-75
2022/05/23 06:41:59;;;;;;;;;;;;;;;16.52;100.00;-25532.09;5035366;28;19921;-75
2022/05/23 06:44:25;;;;;;;;;;;;;;;16.49;100.00;-25531.22;5051106;28;20017;-74
2022/05/23 06:46:51;;;;;;;;;;;;;;;16.25;100.00;-25524.53;5051292;28;19945;-74
2022/05/23 06:49:16;;;;;;;;;;;;;;;16.40;100.00;-25528.75;5053037;28;20370;-74
2022/05/23 06:51:48;;;;;;;;;;;;;;;16.44;100.00;-25529.78;5051143;28;19967;-76
2022/05/23 06:54:13;;;;;;;;;;;;;;;16.15;100.00;-25521.63;5051409;28;19953;-75
2022/05/23 06:56:39;;;;;;;;;;;;;;;16.26;100.00;-25524.84;5051080;28;19967;-74
2022/05/23 06:59:04;;;;;;;;;;;;;;;16.44;100.00;-25529.78;5034397;28;20376;-75
2022/05/23 07:01:29;;;;;;;;;;;;;;;16.77;100.00;-25539.22;5052272;28;19921;-75
2022/05/23 07:03:54;;;;;;;;;;;;;;;16.89;100.00;-25542.56;5050946;28;20004;-76
2022/05/23 07:14:33;;;;;;;;;;;;;;;17.12;100.00;-25549.06;5051687;28;19947;-74
2022/05/23 07:17:00;;;;;;;;;;;;;;;17.35;100.00;-25555.44;5051398;28;19913;-76
2022/05/23 07:19:26;;;;;;;;;;;;;;;17.44;100.00;-25557.91;5050620;28;19924;-75
2022/05/23 07:21:51;;;;;;;;;;;;;;;17.55;100.00;-25561.09;5051642;28;19917;-73
2022/05/23 07:24:17;;;;;;;;;;;;;;;17.70;100.00;-25565.31;5052028;28;19924;-75
2022/05/23 07:26:42;;;;;;;;;;;;;;;17.66;100.00;-25564.28;5050073;28;20172;-75
2022/05/23 07:29:09;;;;;;;;;;;;;;;17.70;100.00;-25565.31;5050469;28;19943;-75
2022/05/23 07:31:34;;;;;;;;;;;;;;;17.51;100.00;-25560.09;5050905;28;19971;-76
2022/05/23 07:34:00;;;;;;;;;;;;;;;17.64;100.00;-25563.56;5050274;28;20368;-75
2022/05/23 07:36:25;;;;;;;;;;;;;;;17.99;100.00;-25573.41;5050764;28;19917;-76
2022/05/23 07:38:51;;;;;;;;;;;;;;;18.04;100.00;-25575.00;5051726;28;19917;-76
2022/05/23 07:41:16;;;;;;;;;;;;;;;18.28;100.00;-25581.81;5050791;28;19921;-76
2022/05/23 07:43:41;;;;;;;;;;;;;;;18.20;100.00;-25579.50;5050111;28;19924;-76
2022/05/23 07:46:09;;;;;;;;;;;;;;;18.22;100.00;-25580.06;5052164;28;20373;-76
2022/05/23 07:49:01;;;;;;;;;;;;;;;18.39;100.00;-25584.72;5049411;28;19963;-77
2022/05/23 07:51:30;;;;;;;;;;;;;;;18.80;100.00;-25596.28;5050873;28;20373;-77
2022/05/23 08:02:09;;;;;;;;;;;;;;;19.08;100.00;-25604.22;5051687;28;20402;-77
2022/05/23 08:04:35;;;;;;;;;;;;;;;18.88;100.00;-25598.59;5049841;28;19924;-78
2022/05/23 08:07:00;;;;;;;;;;;;;;;19.30;100.00;-25277.59;5050882;28;19963;-76
2022/05/23 08:09:25;;;;;;;;;;;;;;;19.15;100.00;-19644.91;5049094;28;19963;-76
2022/05/23 08:11:55;;;;;;;;;;;;;;;18.88;100.00;-18977.38;5049512;28;20426;-75
2022/05/23 08:14:22;;;;;;;;;;;;;;;19.13;100.00;-16661.50;5050018;28;19991;-75
2022/05/23 08:16:47;;;;;;;;;;;;;;;19.38;100.00;-12018.38;5048533;28;19963;-76
2022/05/23 08:19:12;;;;;;;;;;;;;;;19.61;100.00;-7033.19;5050985;28;19924;-76
2022/05/23 08:21:43;;;;;;;;;;;;;;;19.97;100.00;-370.00;5033215;28;19921;-75
2022/05/23 08:24:08;;;;;;;;;;;;;;;19.99;100.00;5636.88;5047998;28;19960;-76
2022/05/23 08:26:34;;;;;;;;;;;;;;;20.36;100.00;10994.72;5033003;28;19964;-75
2022/05/23 08:28:59;;;;;;;;;;;;;;;19.93;100.00;11316.38;5049851;28;19956;-75
2022/05/23 08:31:25;;;;;;;;;;;;;;;19.88;100.00;15329.94;5049371;28;19967;-76
2022/05/23 08:33:50;;;;;;;;;;;;;;;20.14;100.00;15004.25;5049343;28;20015;-76
2022/05/23 08:36:15;;;;;;;;;;;;;;;20.63;100.00;25424.38;5049855;28;19924;-77
2022/05/23 08:38:40;;;;;;;;;;;;;;;20.61;100.00;28448.13;5048791;28;19971;-78
2022/05/23 08:41:15;;;;;;;;;;;;;;;20.49;100.00;32477.69;5050007;28;20420;-77
2022/05/23 08:43:41;;;;;;;;;;;;;;;20.29;100.00;30110.38;5050892;28;19963;-77
2022/05/23 08:46:07;;;;;;;;;;;;;;;20.97;100.00;29815.00;5049152;28;20058;-77
2022/05/23 08:48:43;;;;;;;;;;;;;;;20.88;100.00;44981.88;5050031;28;20365;-77
2022/05/23 08:51:21;;;;;;;;;;;;;;;20.45;100.00;44270.75;5049246;28;19920;-75
2022/05/23 08:53:51;;;;;;;;;;;;;;;20.32;100.00;43247.53;5049134;28;19920;-77
2022/05/23 08:56:19;;;;;;;;;;;;;;;20.70;100.00;44629.16;5050168;28;19924;-77
2022/05/23 08:58:55;;;;;;;;;;;;;;;20.71;100.00;45305.03;5050426;28;20015;-79
2022/05/23 09:01:43;;;;;;;;;;;;;;;20.50;100.00;54414.56;5049832;28;19924;-75
2022/05/23 09:04:31;;;;;;;;;;;;;;;20.09;100.00;46266.09;5049423;28;19917;-75
2022/05/23 09:06:58;;;;;;;;;;;;;;;20.27;100.00;35829.28;5050781;28;19912;-77
2022/05/23 09:09:24;;;;;;;;;;;;;;;20.93;100.00;30485.41;5049637;28;19917;-75
2022/05/23 09:11:51;;;;;;;;;;;;;;;20.92;100.00;47688.47;5049495;28;19924;-76
2022/05/23 09:14:19;;;;;;;;;;;;;;;21.23;100.00;61607.38;5049284;28;19939;-77
2022/05/23 09:16:44;;;;;;;;;;;;;;;21.52;100.00;76609.13;5049595;28;19923;-77
2022/05/23 09:19:28;;;;;;;;;;;;;;;22.07;100.00;105097.75;5047595;28;19920;-77
2022/05/23 09:22:13;;;;;;;;;;;;;;;21.98;100.00;128508.16;5049496;28;19929;-77
2022/05/23 09:24:55;;;;;;;;;;;;;;;22.05;100.00;148119.75;5050271;28;19924;-75
2022/05/23 09:27:26;;;;;;;;;;;;;;;21.88;100.00;142674.19;5049842;28;20289;-77
2022/05/23 09:29:53;;;;;;;;;;;;;;;21.11;100.00;127975.41;5050533;28;19920;-77
2022/05/23 09:32:22;;;;;;;;;;;;;;;21.23;100.00;119038.72;5050881;28;19916;-77
2022/05/23 09:34:49;;;;;;;;;;;;;;;20.73;100.00;95612.16;5048982;28;19924;-77
2022/05/23 09:37:30;;;;;;;;;;;;;;;21.01;100.00;103878.84;5052341;28;19928;-77
2022/05/23 09:39:56;;;;;;;;;;;;;;;20.21;100.00;98262.59;5054641;28;20062;-77
2022/05/23 09:48:09;;;;;;;;;;;;;;;20.17;100.00;72009.16;5054546;28;19931;-74
2022/05/23 09:50:36;;;;;;;;;;;;;;;20.09;100.00;64193.94;5051594;28;20389;-78
2022/05/23 09:53:02;;;;;;;;;;;;;;;20.06;100.00;68600.72;5061990;28;19920;-77
2022/05/23 09:55:31;;;;;;;;;;;;;;;20.22;100.00;65904.50;5072601;28;20304;-78
2022/05/23 09:57:59;;;;;;;;;;;;;;;20.01;100.00;72669.00;5073643;28;20288;-77
2022/05/23 10:00:24;;;;;;;;;;;;;;;20.04;100.00;74371.25;5074493;28;19913;-77
2022/05/23 10:02:59;;;;;;;;;;;;;;;20.03;100.00;95839.69;5071842;28;19916;-77
2022/05/23 10:05:28;;;;;;;;;;;;;;;19.94;100.00;96166.06;5073038;28;19920;-77
2022/05/23 10:07:59;;;;;;;;;;;;;;;20.14;100.00;90051.16;5073789;28;20016;-77
2022/05/23 10:10:26;;;;;;;;;;;;;;;20.34;100.00;82580.06;5072603;28;19921;-76
2022/05/23 10:13:09;;;;;;;;;;;;;;;20.41;100.00;83953.69;5071741;28;19916;-76
2022/05/23 10:15:41;;;;;;;;;;;;;;;20.33;100.00;88716.31;5073329;28;19920;-75
2022/05/23 10:18:08;;;;;;;;;;;;;;;20.52;100.00;90110.34;5072225;28;19990;-74
2022/05/23 10:20:34;;;;;;;;;;;;;;;20.08;100.00;87314.25;5072063;28;19927;-75
2022/05/23 10:23:03;;;;;;;;;;;;;;;19.99;100.00;75724.19;5071012;28;19916;-75
2022/05/23 10:25:34;;;;;;;;;;;;;;;20.20;100.00;73372.97;5072018;28;19916;-75
2022/05/23 10:28:04;;;;;;;;;;;;;;;20.24;100.00;79160.00;5073431;28;20118;-75
2022/05/23 10:30:32;;;;;;;;;;;;;;;20.22;100.00;74734.72;5070789;28;19982;-75
2022/05/23 10:33:08;;;;;;;;;;;;;;;20.12;100.00;78463.09;5073238;28;19916;-75
2022/05/23 10:35:37;;;;;;;;;;;;;;;20.17;100.00;85622.63;5071596;28;20268;-75
2022/05/23 10:43:53;;;;;;;;;;;;;;;21.49;100.00;146847.56;5072574;28;19923;-77
2022/05/23 10:46:19;;;;;;;;;;;;;;;21.85;100.00;148214.75;5071341;28;19920;-75
2022/05/23 10:48:44;;;;;;;;;;;;;;;22.01;100.00;148254.50;5071824;28;20015;-77
2022/05/23 10:51:21;;;;;;;;;;;;;;;21.84;100.00;148212.16;5073305;28;19932;-77
2022/05/23 10:53:56;;;;;;;;;;;;;;;22.13;100.00;148284.00;5073001;28;19917;-78
2022/05/23 10:56:25;;;;;;;;;;;;;;;22.70;100.00;148425.16;5073839;28;19916;-78
2022/05/23 10:58:58;;;;;;;;;;;;;;;22.61;100.00;148402.06;5071384;28;20349;-77
2022/05/23 11:01:23;;;;;;;;;;;;;;;22.88;100.00;148471.34;5072152;28;19917;-78
2022/05/23 11:04:09;;;;;;;;;;;;;;;23.36;100.00;148589.50;5073144;28;19921;-78
2022/05/23 11:06:57;;;;;;;;;;;;;;;22.79;100.00;148448.25;5071908;28;19917;-77
2022/05/23 11:09:41;;;;;;;;;;;;;;;22.30;100.00;148325.06;5065854;28;20376;-77
2022/05/23 11:12:15;;;;;;;;;;;;;;;22.89;100.00;148472.66;5071051;28;19916;-75
2022/05/23 11:14:54;;;;;;;;;;;;;;;23.32;100.00;148580.53;5072409;28;19916;-75
2022/05/23 11:17:25;;;;;;;;;;;;;;;22.45;100.00;148363.63;5071592;28;19917;-77
2022/05/23 11:19:50;;;;;;;;;;;;;;;22.40;100.00;148352.06;5070668;28;20019;-76
2022/05/23 11:22:28;;;;;;;;;;;;;;;22.04;100.00;148260.94;5071098;28;20019;-76
2022/05/23 11:25:12;;;;;;;;;;;;;;;21.92;100.00;148230.16;5071241;28;20011;-77
2022/05/23 11:35:52;;;;;;;;;;;;;;;21.31;100.00;148078.81;5070561;28;19973;-77
2022/05/23 11:38:19;;;;;;;;;;;;;;;21.47;100.00;148118.53;5038092;28;19921;-77
2022/05/23 11:40:58;;;;;;;;;;;;;;;21.56;100.00;148140.41;5053702;28;20011;-76
2022/05/23 11:43:27;;;;;;;;;;;;;;;21.76;100.00;148191.66;5054206;28;19920;-75
2022/05/23 11:46:05;;;;;;;;;;;;;;;21.39;100.00;148099.31;5072419;28;19920;-75
2022/05/23 11:48:36;;;;;;;;;;;;;;;21.34;100.00;148087.75;5053426;28;19916;-77
2022/05/23 11:51:20;;;;;;;;;;;;;;;21.71;100.00;148177.59;5054829;28;20368;-76
2022/05/23 11:54:05;;;;;;;;;;;;;;;21.60;100.00;148150.66;5054582;28;19947;-78
2022/05/23 11:57:10;;;;;;;;;;;;;;;21.88;100.00;148221.19;5054879;28;20007;-76
2022/05/23 11:59:35;;;;;;;;;;;;;;;22.14;100.00;148285.28;5053261;28;20319;-77
2022/05/23 12:02:07;;;;;;;;;;;;;;;22.28;100.00;148319.91;5054669;28;19966;-77
2022/05/23 12:04:35;;;;;;;;;;;;;;;22.53;100.00;148384.13;5054755;28;19961;-76
2022/05/23 12:07:00;;;;;;;;;;;;;;;22.33;100.00;148332.81;5054230;28;19921;-77
2022/05/23 12:09:28;;;;;;;;;;;;;;;22.10;100.00;148275.06;5070551;28;19970;-76
2022/05/23 12:12:13;;;;;;;;;;;;;;;21.81;100.00;148204.53;5053906;28;20381;-77
2022/05/23 12:14:38;;;;;;;;;;;;;;;21.46;100.00;148117.25;5053945;28;19917;-77
2022/05/23 12:17:11;;;;;;;;;;;;;;;21.38;100.00;148096.78;5071614;28;20294;-78
2022/05/23 12:19:39;;;;;;;;;;;;;;;21.21;100.00;148054.47;5053926;28;20365;-75
2022/05/23 12:22:11;;;;;;;;;;;;;;;21.11;100.00;148028.81;5071652;28;19920;-77
2022/05/23 12:24:54;;;;;;;;;;;;;;;21.02;100.00;148005.75;5054002;28;19916;-78
2022/05/23 12:27:26;;;;;;;;;;;;;;;20.84;100.00;147960.91;5054316;28;19924;-77
2022/05/23 12:30:11;;;;;;;;;;;;;;;20.78;100.00;147946.81;5051955;28;19920;-77
2022/05/23 12:32:38;;;;;;;;;;;;;;;20.42;100.00;147858.34;5070892;28;19923;-77
2022/05/23 12:35:05;;;;;;;;;;;;;;;20.44;100.00;147862.19;5073410;28;19921;-75
2022/05/23 12:37:33;;;;;;;;;;;;;;;20.51;100.00;147880.13;5066445;28;19931;-78
2022/05/23 12:40:11;;;;;;;;;;;;;;;20.57;100.00;147895.50;5058111;28;19964;-77
2022/05/23 12:42:45;;;;;;;;;;;;;;;20.53;100.00;147883.97;5052630;28;19924;-75
2022/05/23 12:45:40;;;;;;;;;;;;;;;20.52;100.00;147882.66;5064555;28;20442;-75
2022/05/23 12:48:25;;;;;;;;;;;;;;;20.46;100.00;147867.28;5040538;28;19966;-76
2022/05/23 12:50:51;;;;;;;;;;;;;;;20.45;100.00;135075.97;5052744;28;19921;-77
2022/05/23 12:53:19;;;;;;;;;;;;;;;20.53;100.00;111339.56;5071126;28;20422;-77
2022/05/23 12:55:44;;;;;;;;;;;;;;;20.32;100.00;76789.03;5052771;28;19924;-76
2022/05/23 12:58:16;;;;;;;;;;;;;;;20.28;100.00;47294.88;5052178;28;19986;-77
2022/05/23 13:00:47;;;;;;;;;;;;;;;20.07;100.00;22710.06;5071075;28;20003;-76
2022/05/23 13:03:19;;;;;;;;;;;;;;;20.37;100.00;2638.63;5062728;28;19969;-75
2022/05/23 13:05:48;;;;;;;;;;;;;;;20.23;100.00;-8697.06;5072222;28;20537;-74
2022/05/23 13:08:26;;;;;;;;;;;;;;;19.94;100.00;-15012.50;5061907;28;19927;-75
2022/05/23 13:10:56;;;;;;;;;;;;;;;19.51;100.00;-25616.22;5055506;28;19939;-74
2022/05/23 13:13:34;;;;;;;;;;;;;;;19.26;100.00;-25609.28;5056975;28;19916;-75
2022/05/23 13:16:18;;;;;;;;;;;;;;;19.02;100.00;-25602.50;5057695;28;20284;-75
2022/05/23 13:24:48;;;;;;;;;;;;;;;18.65;100.00;-25592.22;5088978;28;19923;-76
2022/05/23 13:27:00;;;;;;;;;;;;;;;18.70;100.00;-25593.38;5059643;28;19936;-77
2022/05/23 13:29:25;;;;;;;;;;;;;;;18.25;100.00;-25580.94;5057018;28;19924;-76
2022/05/23 13:31:56;;;;;;;;;;;;;;;17.79;100.00;-25567.75;5040074;28;19960;-79
2022/05/23 13:34:22;;;;;;;;;;;;;;;17.39;100.00;-25556.63;5056354;28;19962;-78
2022/05/23 13:36:48;;;;;;;;;;;;;;;17.13;100.00;-25549.38;5057492;28;19924;-81
2022/05/23 13:39:15;;;;;;;;;;;;;;;16.85;100.00;-25541.38;5041647;28;20018;-80
2022/05/23 13:41:41;;;;;;;;;;;;;;;16.83;100.00;-25540.94;5058094;28;19963;-81
2022/05/23 13:44:27;;;;;;;;;;;;;;;16.78;100.00;-25539.50;5058475;28;19927;-79